Time;durP1;ratioP1;P1;durP2;ratioP2;P2;SDS_P1;SDS_P2;PMS_P1;PMS_P2;Temp;Humidity;BMP_temperature;BMP_pressure;BME280_temperature;BME280_humidity;BME280_pressure;Samples;Min_cycle;Max_cycle;Signal;HPM_P1;HPM_P2
2022/10/31 00:00:17;;;;;;;8.75;5.15;;;;;;;13.22;100.00;100521.63;5051915;28;20104;-62
2022/10/31 00:02:42;;;;;;;8.48;5.13;;;;;;;13.20;100.00;100513.69;5051100;28;20551;-62
2022/10/31 00:05:08;;;;;;;8.60;5.13;;;;;;;13.15;100.00;100520.09;5031272;28;20033;-62
2022/10/31 00:07:34;;;;;;;11.57;5.28;;;;;;;13.09;100.00;100515.84;5031145;28;20033;-63
2022/10/31 00:09:59;;;;;;;8.00;4.78;;;;;;;12.99;100.00;100510.84;5018719;28;20045;-62
2022/10/31 00:12:25;;;;;;;9.95;4.60;;;;;;;13.02;100.00;100522.34;5024668;28;20036;-62
2022/10/31 00:14:51;;;;;;;7.55;5.28;;;;;;;13.04;100.00;100516.94;5027664;28;20623;-62
2022/10/31 00:17:16;;;;;;;10.45;4.82;;;;;;;13.03;100.00;100521.38;5031333;28;20033;-63
2022/10/31 00:19:42;;;;;;;10.35;5.57;;;;;;;13.01;100.00;100517.03;5031708;28;20044;-63
2022/10/31 00:22:07;;;;;;;9.00;4.95;;;;;;;12.96;100.00;100521.63;5031729;28;20540;-63
2022/10/31 00:24:33;;;;;;;13.00;5.38;;;;;;;12.91;100.00;100518.25;5031378;28;20021;-62
2022/10/31 00:26:58;;;;;;;8.95;4.97;;;;;;;12.90;100.00;100516.47;5030560;28;20647;-63
2022/10/31 00:29:23;;;;;;;7.50;4.35;;;;;;;12.86;100.00;100513.06;5031402;28;20129;-62
2022/10/31 00:31:49;;;;;;;9.07;5.55;;;;;;;12.87;100.00;100520.16;5031330;28;20373;-62
2022/10/31 00:34:14;;;;;;;10.65;5.32;;;;;;;12.84;100.00;100514.03;5031555;28;20033;-62
2022/10/31 00:36:40;;;;;;;13.45;5.20;;;;;;;12.84;100.00;100514.91;5031556;28;20664;-62
2022/10/31 00:39:05;;;;;;;10.13;5.43;;;;;;;12.81;100.00;100511.47;5031341;28;20052;-63
2022/10/31 00:41:31;;;;;;;8.93;5.28;;;;;;;12.79;100.00;100510.66;5031615;28;20029;-63
2022/10/31 00:43:56;;;;;;;7.32;4.80;;;;;;;12.77;100.00;100509.81;5031428;28;20104;-63
2022/10/31 00:46:21;;;;;;;10.20;5.28;;;;;;;12.77;100.00;100512.47;5031194;28;20037;-63
2022/10/31 00:48:47;;;;;;;8.75;4.72;;;;;;;12.78;100.00;100516.91;5031181;28;20025;-62
2022/10/31 00:51:12;;;;;;;12.52;5.57;;;;;;;12.75;100.00;100515.22;5028879;28;20072;-62
2022/10/31 00:53:38;;;;;;;7.13;4.28;;;;;;;12.74;100.00;100508.13;5031268;28;20433;-62
2022/10/31 00:56:04;;;;;;;8.02;5.13;;;;;;;12.74;100.00;100513.47;5031046;28;20032;-62
2022/10/31 00:58:29;;;;;;;11.23;5.10;;;;;;;12.75;100.00;100512.53;5031029;28;20150;-63
2022/10/31 01:00:54;;;;;;;12.02;5.30;;;;;;;12.75;100.00;100525.03;5030319;28;20112;-63
2022/10/31 01:03:29;;;;;;;8.85;4.78;;;;;;;12.76;100.00;100519.63;5029999;28;20074;-63
2022/10/31 01:06:07;;;;;;;7.72;5.10;;;;;;;12.76;100.00;100516.97;5030192;28;20037;-63
2022/10/31 01:08:33;;;;;;;7.97;4.82;;;;;;;12.71;100.00;100507.38;5030192;28;20026;-62
2022/10/31 01:11:01;;;;;;;10.85;5.85;;;;;;;12.72;100.00;100519.78;5030186;28;20030;-62
2022/10/31 01:13:26;;;;;;;10.55;5.20;;;;;;;12.72;100.00;100514.44;5029996;28;20037;-62
2022/10/31 01:15:56;;;;;;;11.02;5.28;;;;;;;12.68;100.00;100521.69;5030664;28;20068;-62
2022/10/31 01:18:22;;;;;;;9.80;5.38;;;;;;;12.66;100.00;100522.66;5031016;28;20025;-63
2022/10/31 01:20:56;;;;;;;8.10;5.07;;;;;;;12.66;100.00;100519.97;5030916;28;20033;-63
2022/10/31 01:23:21;;;;;;;10.13;5.38;;;;;;;12.54;100.00;100505.25;5030755;28;20029;-63
2022/10/31 01:25:46;;;;;;;11.63;5.10;;;;;;;12.66;100.00;100519.97;5026858;28;20029;-62
2022/10/31 01:28:12;;;;;;;9.50;5.18;;;;;;;12.64;100.00;100524.50;5011180;28;20049;-62
2022/10/31 01:30:37;;;;;;;11.30;6.20;;;;;;;12.63;100.00;100523.66;5011065;28;20113;-62
2022/10/31 01:33:03;;;;;;;10.80;6.07;;;;;;;12.65;100.00;100529.78;5011147;28;20461;-62
2022/10/31 01:35:28;;;;;;;10.32;5.88;;;;;;;12.62;100.00;100523.69;5010525;28;20034;-63
2022/10/31 01:37:54;;;;;;;9.75;5.20;;;;;;;12.59;100.00;100523.78;5011251;28;20116;-63
2022/10/31 01:40:19;;;;;;;8.45;4.88;;;;;;;12.56;100.00;100527.44;5030163;28;20037;-63
2022/10/31 01:42:45;;;;;;;11.60;5.72;;;;;;;12.54;100.00;100525.72;5033951;28;20033;-63
2022/10/31 01:45:11;;;;;;;11.82;5.38;;;;;;;12.51;100.00;100518.69;5033568;28;20492;-63
2022/10/31 01:47:43;;;;;;;9.63;5.13;;;;;;;12.51;100.00;100520.47;5033882;28;20040;-62
2022/10/31 01:50:31;;;;;;;8.85;5.75;;;;;;;12.49;100.00;100519.66;5034059;28;20114;-62
2022/10/31 01:52:57;;;;;;;9.40;5.13;;;;;;;12.47;100.00;100509.03;5034558;28;20373;-63
2022/10/31 01:55:28;;;;;;;8.35;4.57;;;;;;;12.45;100.00;100513.56;5034354;28;20419;-63
2022/10/31 01:57:57;;;;;;;11.07;5.85;;;;;;;12.48;100.00;100508.13;5034253;28;20045;-63
2022/10/31 02:00:39;;;;;;;9.48;5.25;;;;;;;12.47;100.00;100509.03;5034364;28;20512;-62
2022/10/31 02:03:04;;;;;;;8.70;5.57;;;;;;;12.52;100.00;100501.75;5030851;28;20407;-63
2022/10/31 02:05:32;;;;;;;9.70;5.32;;;;;;;12.54;100.00;100510.59;5014233;28;20112;-63
2022/10/31 02:08:31;;;;;;;9.60;5.28;;;;;;;12.56;100.00;100502.53;5014559;28;20030;-62
2022/10/31 02:10:57;;;;;;;13.60;5.72;;;;;;;12.48;100.00;100489.44;5014472;28;20034;-63
2022/10/31 02:13:23;;;;;;;11.50;5.60;;;;;;;12.58;100.00;100506.91;5014579;28;20032;-62
2022/10/31 02:15:52;;;;;;;9.95;5.78;;;;;;;12.59;100.00;100505.97;5014116;28;20503;-62
2022/10/31 02:18:19;;;;;;;8.48;5.50;;;;;;;12.52;100.00;100498.22;5014404;28;20030;-63
2022/10/31 02:21:02;;;;;;;12.40;5.13;;;;;;;12.51;100.00;100500.03;5018264;28;20032;-63
2022/10/31 02:23:36;;;;;;;11.50;5.55;;;;;;;12.50;100.00;100505.41;5014183;28;20121;-62
2022/10/31 02:26:37;;;;;;;10.38;5.00;;;;;;;12.48;100.00;100505.47;5013984;28;20021;-63
2022/10/31 02:29:31;;;;;;;8.52;5.18;;;;;;;12.43;100.00;100499.41;5014319;28;20485;-62
2022/10/31 02:32:23;;;;;;;7.85;4.35;;;;;;;12.46;100.00;100501.09;5029913;28;20045;-64
2022/10/31 02:35:00;;;;;;;8.18;5.40;;;;;;;12.45;100.00;100491.34;5033560;28;20018;-63
2022/10/31 02:37:41;;;;;;;11.75;4.60;;;;;;;12.41;100.00;100492.34;5033688;28;20736;-63
2022/10/31 02:40:18;;;;;;;10.63;5.55;;;;;;;12.37;100.00;100490.72;5032997;28;20025;-63
2022/10/31 02:43:06;;;;;;;9.30;5.22;;;;;;;12.37;100.00;100485.38;5032985;28;20033;-63
2022/10/31 02:45:49;;;;;;;15.95;6.50;;;;;;;12.36;100.00;100489.84;5032620;28;20075;-63
2022/10/31 02:48:25;;;;;;;7.28;4.68;;;;;;;12.36;100.00;100487.16;5032817;28;20033;-63
2022/10/31 02:50:56;;;;;;;11.50;5.22;;;;;;;12.37;100.00;100486.22;5031857;28;20447;-63
2022/10/31 02:53:22;;;;;;;10.23;5.40;;;;;;;12.36;100.00;100484.50;5027158;28;20543;-63
2022/10/31 02:55:57;;;;;;;9.57;5.15;;;;;;;12.38;100.00;100487.13;5013570;28;20036;-62
2022/10/31 02:58:26;;;;;;;9.23;4.60;;;;;;;12.32;100.00;100476.66;5013454;28;20408;-63
2022/10/31 03:01:01;;;;;;;8.65;4.95;;;;;;;12.36;100.00;100479.16;5013555;28;20025;-62
2022/10/31 03:03:36;;;;;;;8.07;4.50;;;;;;;12.33;100.00;100481.94;5019666;28;20021;-63
2022/10/31 03:06:31;;;;;;;6.57;4.90;;;;;;;12.30;100.00;100484.72;5033184;28;20025;-63
2022/10/31 03:09:06;;;;;;;10.88;4.32;;;;;;;12.28;100.00;100481.22;5027205;28;20033;-63
2022/10/31 03:11:41;;;;;;;11.90;5.75;;;;;;;12.25;100.00;100486.66;5033030;28;20363;-64
2022/10/31 03:14:12;;;;;;;8.40;5.07;;;;;;;12.20;100.00;100483.25;5032817;28;20045;-63
2022/10/31 03:16:49;;;;;;;8.00;4.60;;;;;;;12.18;100.00;100479.75;5030455;28;20021;-62
2022/10/31 03:19:23;;;;;;;9.60;5.05;;;;;;;12.17;100.00;100479.81;5012575;28;20096;-63
2022/10/31 03:21:54;;;;;;;9.35;4.78;;;;;;;12.15;100.00;100474.53;5012291;28;20022;-64
2022/10/31 03:24:22;;;;;;;7.90;4.35;;;;;;;12.14;100.00;100472.75;5012269;28;20729;-63
2022/10/31 03:26:53;;;;;;;7.57;4.55;;;;;;;12.16;100.00;100478.06;5012210;28;20049;-63
2022/10/31 03:29:22;;;;;;;8.93;4.53;;;;;;;12.14;100.00;100472.75;5012431;28;20528;-64
2022/10/31 03:32:02;;;;;;;7.43;4.07;;;;;;;11.96;100.00;100454.69;5012724;28;20476;-63
2022/10/31 03:34:29;;;;;;;8.82;4.05;;;;;;;12.11;100.00;100483.53;5012986;28;20377;-63
2022/10/31 03:36:57;;;;;;;9.55;4.20;;;;;;;12.06;100.00;100474.81;5012998;28;20057;-63
2022/10/31 03:39:24;;;;;;;8.43;4.30;;;;;;;12.08;100.00;100488.97;5012860;28;20104;-63
2022/10/31 03:41:59;;;;;;;7.13;4.30;;;;;;;12.08;100.00;100488.09;5012622;28;20469;-64
2022/10/31 03:44:27;;;;;;;9.18;4.75;;;;;;;12.07;100.00;100487.22;5012481;28;20025;-64
2022/10/31 03:46:53;;;;;;;8.88;4.57;;;;;;;11.82;100.00;100449.81;5013813;28;20477;-63
2022/10/31 03:49:19;;;;;;;10.82;4.50;;;;;;;11.99;100.00;100483.94;5030123;28;20101;-63
2022/10/31 03:52:12;;;;;;;11.20;4.38;;;;;;;11.97;100.00;100485.78;5032117;28;20057;-64
2022/10/31 03:54:54;;;;;;;5.78;3.83;;;;;;;11.97;100.00;100479.56;5032444;28;20060;-64
2022/10/31 03:57:50;;;;;;;6.50;4.07;;;;;;;11.94;100.00;100473.38;5031942;28;20053;-63
2022/10/31 04:00:17;;;;;;;8.98;4.25;;;;;;;11.90;100.00;100478.88;5031856;28;20029;-63
2022/10/31 04:02:55;;;;;;;20.00;6.50;;;;;;;11.90;100.00;100470.88;5032090;28;20029;-63
2022/10/31 04:05:21;;;;;;;10.68;4.78;;;;;;;11.87;100.00;100468.31;5031696;28;20037;-63
2022/10/31 04:07:51;;;;;;;8.57;4.43;;;;;;;11.85;100.00;100475.47;5032318;28;20716;-64
2022/10/31 04:10:18;;;;;;;6.90;4.45;;;;;;;11.83;100.00;100471.97;5031876;28;20057;-63
2022/10/31 04:12:52;;;;;;;12.43;5.03;;;;;;;11.82;100.00;100481.78;5031645;28;20033;-64
2022/10/31 04:15:19;;;;;;;11.82;4.72;;;;;;;11.76;100.00;100465.09;5014319;28;20022;-63
2022/10/31 04:17:47;;;;;;;14.77;5.20;;;;;;;11.82;100.00;100476.44;5011993;28;20088;-63
2022/10/31 04:20:15;;;;;;;17.60;5.45;;;;;;;11.82;100.00;100486.22;5012289;28;20026;-64
2022/10/31 04:22:41;;;;;;;10.55;5.75;;;;;;;11.82;100.00;100475.56;5012033;28;20059;-64
2022/10/31 04:25:07;;;;;;;15.23;5.18;;;;;;;11.83;100.00;100485.28;5028945;28;20091;-63
2022/10/31 04:27:32;;;;;;;12.35;5.18;;;;;;;11.82;100.00;100478.22;5031197;28;20066;-64
2022/10/31 04:29:59;;;;;;;8.90;4.00;;;;;;;11.77;100.00;100481.03;5031647;28;20048;-63
2022/10/31 04:32:24;;;;;;;8.80;4.78;;;;;;;11.73;100.00;100475.84;5031268;28;20067;-64
2022/10/31 04:34:50;;;;;;;7.25;4.28;;;;;;;11.71;100.00;100483.03;5031753;28;20519;-63
2022/10/31 04:37:15;;;;;;;11.93;4.57;;;;;;;11.66;100.00;100474.28;5031097;28;20037;-64
2022/10/31 04:39:40;;;;;;;8.68;4.13;;;;;;;11.65;100.00;100472.53;5031300;28;20028;-64
2022/10/31 04:42:06;;;;;;;5.57;3.70;;;;;;;11.61;100.00;100477.03;5030931;28;20017;-64
2022/10/31 04:44:31;;;;;;;7.57;4.07;;;;;;;11.62;100.00;100467.25;5022011;28;20385;-63
2022/10/31 04:46:57;;;;;;;6.72;4.28;;;;;;;11.61;100.00;100477.03;5011394;28;20496;-63
2022/10/31 04:49:22;;;;;;;7.82;4.10;;;;;;;11.57;100.00;100469.19;5011688;28;20041;-63
2022/10/31 04:51:48;;;;;;;7.13;4.38;;;;;;;11.55;100.00;100481.66;5011485;28;20026;-63
2022/10/31 04:54:13;;;;;;;6.97;3.60;;;;;;;11.43;100.00;100463.41;5011838;28;20028;-63
2022/10/31 04:56:38;;;;;;;10.10;4.30;;;;;;;11.51;100.00;100480.03;5011381;28;20030;-61
2022/10/31 04:59:04;;;;;;;9.50;4.55;;;;;;;11.49;100.00;100479.19;5011331;28;20046;-64
2022/10/31 05:01:29;;;;;;;10.25;5.25;;;;;;;11.48;100.00;100475.66;5011199;28;20137;-63
2022/10/31 05:03:55;;;;;;;12.25;5.35;;;;;;;11.46;100.00;100474.84;5021272;28;20029;-61
2022/10/31 05:06:20;;;;;;;9.13;4.82;;;;;;;11.44;100.00;100474.00;5030929;28;20027;-62
2022/10/31 05:08:45;;;;;;;17.45;5.65;;;;;;;11.41;100.00;100479.44;5030386;28;20425;-61
2022/10/31 05:11:11;;;;;;;11.18;5.45;;;;;;;11.41;100.00;100481.22;5030204;28;20036;-63
2022/10/31 05:13:36;;;;;;;12.27;4.90;;;;;;;11.40;100.00;100476.81;5029539;28;20053;-63
2022/10/31 05:16:03;;;;;;;9.38;4.72;;;;;;;11.39;100.00;100469.72;5029842;28;20144;-62
2022/10/31 05:18:28;;;;;;;14.07;5.43;;;;;;;11.37;100.00;100471.53;5030232;28;20025;-62
2022/10/31 05:20:53;;;;;;;12.48;5.28;;;;;;;11.37;100.00;100471.53;5030112;28;20039;-62
2022/10/31 05:23:19;;;;;;;12.73;5.97;;;;;;;11.39;100.00;100467.06;5030855;28;20052;-62
2022/10/31 05:25:44;;;;;;;11.38;4.72;;;;;;;11.41;100.00;100463.44;5029264;28;20033;-62
2022/10/31 05:28:10;;;;;;;9.15;4.45;;;;;;;11.43;100.00;100450.09;5012929;28;20026;-62
2022/10/31 05:30:36;;;;;;;8.25;4.05;;;;;;;11.48;100.00;100457.00;5011167;28;20075;-63
2022/10/31 05:33:01;;;;;;;9.30;4.68;;;;;;;11.49;100.00;100455.22;5012310;28;20075;-62
2022/10/31 05:35:30;;;;;;;11.60;4.72;;;;;;;11.49;100.00;100461.44;5030712;28;20021;-61
2022/10/31 05:37:57;;;;;;;11.50;6.18;;;;;;;11.51;100.00;100469.38;5030820;28;20695;-62
2022/10/31 05:40:24;;;;;;;17.08;5.80;;;;;;;11.55;100.00;100465.69;5022349;28;20112;-62
2022/10/31 05:42:54;;;;;;;14.68;5.70;;;;;;;11.58;100.00;100454.97;5010960;28;20030;-62
2022/10/31 05:45:21;;;;;;;12.07;6.80;;;;;;;11.56;100.00;100451.47;5010684;28;20080;-62
2022/10/31 05:47:56;;;;;;;11.02;5.82;;;;;;;11.59;100.00;100462.03;5011014;28;20026;-62
2022/10/31 05:50:23;;;;;;;11.02;5.28;;;;;;;11.57;100.00;100459.41;5029768;28;20028;-62
2022/10/31 05:52:58;;;;;;;12.25;6.18;;;;;;;11.55;100.00;100455.91;5030593;28;20030;-62
2022/10/31 05:55:25;;;;;;;10.40;5.13;;;;;;;11.54;100.00;100458.63;5030659;28;20037;-62
2022/10/31 05:57:51;;;;;;;13.27;4.95;;;;;;;11.50;100.00;100456.94;5030281;28;20123;-62
2022/10/31 06:00:16;;;;;;;10.30;4.63;;;;;;;11.49;100.00;100460.53;5030608;28;20084;-62
2022/10/31 06:02:42;;;;;;;13.82;5.07;;;;;;;11.50;100.00;100446.28;5029399;28;20025;-63
2022/10/31 06:05:07;;;;;;;9.38;4.72;;;;;;;11.50;100.00;100451.63;5028849;28;20032;-62
2022/10/31 06:07:34;;;;;;;12.48;4.78;;;;;;;11.45;100.00;100443.78;5030623;28;20151;-63
2022/10/31 06:10:00;;;;;;;13.00;5.05;;;;;;;11.60;100.00;100455.75;5030272;28;20101;-62
2022/10/31 06:12:26;;;;;;;10.05;5.43;;;;;;;11.59;100.00;100456.69;5019730;28;20026;-63
2022/10/31 06:14:51;;;;;;;9.98;5.28;;;;;;;11.66;100.00;100455.63;5030452;28;20025;-63
2022/10/31 06:17:17;;;;;;;8.77;4.93;;;;;;;11.70;100.00;100455.50;5030430;28;20496;-63
2022/10/31 06:19:42;;;;;;;9.18;5.10;;;;;;;11.76;100.00;100451.78;5029931;28;20187;-63
2022/10/31 06:22:08;;;;;;;7.95;4.38;;;;;;;11.82;100.00;100448.91;5029692;28;20033;-64
2022/10/31 06:24:33;;;;;;;8.15;5.05;;;;;;;11.87;100.00;100449.66;5032076;28;20028;-64
2022/10/31 06:26:59;;;;;;;7.68;4.85;;;;;;;11.90;100.00;100446.88;5033644;28;20126;-63
2022/10/31 06:29:24;;;;;;;11.55;5.50;;;;;;;11.96;100.00;100445.84;5033050;28;20049;-63
2022/10/31 06:31:52;;;;;;;10.77;5.53;;;;;;;12.02;100.00;100451.84;5033642;28;20029;-64
2022/10/31 06:34:18;;;;;;;10.88;5.68;;;;;;;12.08;100.00;100451.63;5033338;28;20025;-63
2022/10/31 06:36:43;;;;;;;12.45;6.10;;;;;;;12.10;100.00;100459.59;5024328;28;20126;-64
2022/10/31 06:39:08;;;;;;;10.90;5.97;;;;;;;12.17;100.00;100462.03;5022361;28;20029;-62
2022/10/31 06:41:36;;;;;;;12.68;5.93;;;;;;;12.24;100.00;100460.03;5021359;28;20152;-63
2022/10/31 06:44:01;;;;;;;11.23;6.45;;;;;;;12.31;100.00;100454.44;5017855;28;20028;-63
2022/10/31 06:46:27;;;;;;;9.38;5.22;;;;;;;12.42;100.00;100449.59;5030684;28;20033;-62
2022/10/31 06:48:52;;;;;;;8.13;5.50;;;;;;;12.46;100.00;100453.94;5033300;28;20037;-63
2022/10/31 06:51:18;;;;;;;7.55;5.30;;;;;;;12.51;100.00;100452.00;5032771;28;20029;-62
2022/10/31 06:53:43;;;;;;;10.82;5.32;;;;;;;12.56;100.00;100450.03;5028094;28;20032;-62
2022/10/31 06:56:08;;;;;;;7.95;4.90;;;;;;;12.62;100.00;100446.31;5032408;28;20029;-62
2022/10/31 06:58:34;;;;;;;13.40;6.20;;;;;;;12.73;100.00;100447.69;5022212;28;20172;-62
2022/10/31 07:01:00;;;;;;;9.65;5.25;;;;;;;12.91;100.00;100455.06;5025826;28;20025;-63
2022/10/31 07:03:26;;;;;;;9.90;6.68;;;;;;;13.02;100.00;100444.88;5032473;28;20060;-61
2022/10/31 07:05:51;;;;;;;10.23;5.47;;;;;;;13.23;100.00;100453.91;5028517;28;20057;-62
2022/10/31 07:08:17;;;;;;;9.10;5.03;;;;;;;13.42;100.00;100464.81;5032407;28;20548;-61
2022/10/31 07:10:43;;;;;;;9.55;5.40;;;;;;;13.47;100.00;100469.06;5029908;28;20032;-63
2022/10/31 07:13:14;;;;;;;11.98;5.65;;;;;;;13.41;100.00;100463.91;5022989;28;20066;-62
2022/10/31 07:15:41;;;;;;;13.30;5.25;;;;;;;13.57;100.00;100469.59;5030530;28;20033;-62
2022/10/31 07:18:09;;;;;;;10.52;5.20;;;;;;;13.64;100.00;100476.44;5032881;28;20022;-61
2022/10/31 07:20:35;;;;;;;12.20;5.30;;;;;;;13.72;100.00;100471.69;5028122;28;20029;-61
2022/10/31 07:23:00;;;;;;;8.00;5.18;;;;;;;13.84;100.00;100474.75;5027548;28;20045;-62
2022/10/31 07:25:26;;;;;;;9.65;5.80;;;;;;;14.00;100.00;100473.22;5022876;28;20484;-62
2022/10/31 07:27:52;;;;;;;11.65;6.05;;;;;;;14.21;100.00;100474.19;5020471;28;20030;-61
2022/10/31 07:30:18;;;;;;;10.40;5.57;;;;;;;14.32;100.00;100475.53;5014409;28;20021;-62
2022/10/31 07:32:48;;;;;;;9.52;5.55;;;;;;;14.37;100.00;100473.53;5020106;28;20029;-62
2022/10/31 07:35:21;;;;;;;8.98;5.75;;;;;;;14.50;100.00;100471.22;5029556;28;20032;-62
2022/10/31 07:37:47;;;;;;;8.90;5.40;;;;;;;14.65;100.00;100459.88;5029890;28;20041;-64
2022/10/31 07:40:13;;;;;;;11.02;5.22;;;;;;;14.89;100.00;100464.16;5028720;28;20025;-63
2022/10/31 07:42:41;;;;;;;10.10;5.60;;;;;;;15.03;100.00;100463.59;5031530;28;20393;-63
2022/10/31 07:45:11;;;;;;;7.90;5.15;;;;;;;15.20;100.00;100463.72;5031818;28;20183;-62
2022/10/31 07:47:41;;;;;;;8.95;4.72;;;;;;;15.45;100.00;100475.13;5026231;28;20045;-62
2022/10/31 07:50:08;;;;;;;9.20;4.85;;;;;;;15.67;100.00;100470.50;5030534;28;20022;-62
2022/10/31 07:52:34;;;;;;;8.10;5.25;;;;;;;15.83;100.00;100461.69;5029906;28;20029;-62
2022/10/31 07:54:59;;;;;;;9.88;4.57;;;;;;;16.01;100.00;100481.44;5026484;28;20070;-64
2022/10/31 07:57:25;;;;;;;9.23;4.97;;;;;;;16.10;99.73;100490.84;5027641;28;20051;-63
2022/10/31 07:59:50;;;;;;;6.82;4.28;;;;;;;16.09;99.07;100483.75;5029533;28;20040;-63
2022/10/31 08:02:16;;;;;;;7.50;4.25;;;;;;;16.14;98.69;100481.72;5025808;28;20438;-64
2022/10/31 08:04:41;;;;;;;7.82;5.07;;;;;;;16.46;99.01;100491.78;5025643;28;20037;-64
2022/10/31 08:07:06;;;;;;;7.78;4.45;;;;;;;16.61;97.89;100483.84;5028595;28;20032;-64
2022/10/31 08:09:32;;;;;;;9.60;4.65;;;;;;;16.87;97.78;100479.84;5026786;28;20540;-63
2022/10/31 08:11:57;;;;;;;8.55;4.38;;;;;;;16.91;96.31;100484.13;5028841;28;20700;-63
2022/10/31 08:14:23;;;;;;;6.68;4.57;;;;;;;16.83;95.50;100491.72;5027932;28;20113;-64
2022/10/31 08:16:48;;;;;;;7.40;4.43;;;;;;;16.76;96.15;100482.22;5025702;28;20045;-64
2022/10/31 08:19:14;;;;;;;7.70;4.72;;;;;;;16.63;96.53;100475.72;5028500;28;20032;-64
2022/10/31 08:21:39;;;;;;;6.35;4.43;;;;;;;16.66;96.44;100486.31;5026274;28;20027;-64
2022/10/31 08:24:05;;;;;;;8.10;4.95;;;;;;;16.64;97.27;100485.50;5025438;28;20083;-64
2022/10/31 08:26:30;;;;;;;9.15;4.45;;;;;;;16.42;97.92;100483.00;5029450;28;20353;-63
2022/10/31 08:28:56;;;;;;;8.30;5.18;;;;;;;16.28;98.23;100484.59;5026216;28;20029;-63
2022/10/31 08:31:22;;;;;;;10.57;5.47;;;;;;;16.15;99.40;100494.19;5028846;28;20033;-62
2022/10/31 08:33:48;;;;;;;8.60;5.32;;;;;;;15.96;100.00;100488.84;5029973;28;20033;-65
2022/10/31 08:36:14;;;;;;;11.13;5.88;;;;;;;16.01;100.00;100485.94;5025725;28;20040;-63
2022/10/31 08:38:39;;;;;;;9.13;5.72;;;;;;;16.07;100.00;100485.63;5026842;28;20040;-63
2022/10/31 08:41:05;;;;;;;11.80;6.60;;;;;;;16.23;100.00;100481.25;5028952;28;20037;-63
2022/10/31 08:43:30;;;;;;;11.63;6.60;;;;;;;16.33;100.00;100479.88;5024964;28;20025;-64
2022/10/31 08:45:55;;;;;;;10.10;6.35;;;;;;;16.44;100.00;100481.09;5026431;28;20033;-63
2022/10/31 08:48:21;;;;;;;8.90;6.03;;;;;;;16.60;100.00;100474.06;5028827;28;20017;-63
2022/10/31 08:50:47;;;;;;;8.68;6.10;;;;;;;16.88;100.00;100465.47;5026005;28;20435;-63
2022/10/31 08:53:15;;;;;;;12.77;6.13;;;;;;;17.09;100.00;100465.25;5026028;28;20424;-62
2022/10/31 08:55:42;;;;;;;10.90;6.28;;;;;;;17.18;100.00;100466.59;5028700;28;20022;-62
2022/10/31 08:58:12;;;;;;;9.65;6.18;;;;;;;17.26;98.10;100466.19;5025876;28;20049;-61
2022/10/31 09:00:38;;;;;;;9.55;5.97;;;;;;;17.23;97.26;100467.22;5024430;28;20028;-62
2022/10/31 09:03:11;;;;;;;11.10;6.63;;;;;;;17.42;97.40;100467.09;5028268;28;20025;-62
2022/10/31 09:05:37;;;;;;;11.40;6.57;;;;;;;17.81;97.25;100471.22;5023501;28;20029;-63
2022/10/31 09:08:04;;;;;;;9.07;5.70;;;;;;;18.19;95.59;100461.00;5024340;28;20037;-63
2022/10/31 09:10:31;;;;;;;9.32;5.88;;;;;;;18.75;92.35;100461.34;5025807;28;20030;-63
2022/10/31 09:12:59;;;;;;;11.35;6.78;;;;;;;19.20;89.36;100457.72;5024555;28;20044;-64
2022/10/31 09:15:26;;;;;;;8.18;5.90;;;;;;;19.35;85.34;100451.44;5027074;28;20029;-63
2022/10/31 09:17:51;;;;;;;11.52;6.22;;;;;;;19.49;83.98;100448.72;5027724;28;20052;-62
2022/10/31 09:20:16;;;;;;;8.95;5.90;;;;;;;19.86;83.03;100450.88;5024877;28;20112;-63
2022/10/31 09:22:42;;;;;;;8.13;5.40;;;;;;;20.07;81.10;100446.78;5027019;28;20469;-62
2022/10/31 09:25:08;;;;;;;11.20;5.68;;;;;;;20.05;79.58;100454.13;5028812;28;20693;-62
2022/10/31 09:27:34;;;;;;;10.32;5.93;;;;;;;19.99;79.60;100448.25;5023882;28;20029;-63
2022/10/31 09:29:59;;;;;;;9.25;5.72;;;;;;;19.86;79.75;100442.78;5027043;28;20022;-62
2022/10/31 09:32:25;;;;;;;9.25;5.25;;;;;;;19.83;79.64;100437.56;5025626;28;20887;-62
2022/10/31 09:34:50;;;;;;;8.52;5.72;;;;;;;19.78;79.36;100441.50;5025328;28;20029;-62
2022/10/31 09:37:15;;;;;;;8.63;5.75;;;;;;;19.72;79.66;100433.81;5027681;28;20678;-62
2022/10/31 09:39:41;;;;;;;7.65;5.25;;;;;;;19.50;80.20;100423.50;5024652;28;20720;-62
2022/10/31 09:42:29;;;;;;;11.00;5.90;;;;;;;19.54;81.84;100430.41;5025242;28;20068;-63
2022/10/31 09:45:19;;;;;;;10.45;5.97;;;;;;;19.63;81.44;100425.34;5025957;28;20029;-62
2022/10/31 09:47:49;;;;;;;10.13;5.95;;;;;;;19.73;81.47;100420.22;5024679;28;20124;-64
2022/10/31 09:50:22;;;;;;;9.18;6.03;;;;;;;19.53;81.83;100423.31;5026517;28;20428;-63
2022/10/31 09:53:20;;;;;;;9.25;5.65;;;;;;;19.36;81.91;100426.19;5027160;28;20159;-62
2022/10/31 09:55:49;;;;;;;9.23;6.05;;;;;;;19.29;83.94;100424.84;5024690;28;20159;-63
2022/10/31 09:58:23;;;;;;;12.02;5.93;;;;;;;19.40;83.04;100427.72;5027531;28;20136;-63
2022/10/31 10:00:49;;;;;;;11.35;5.57;;;;;;;19.32;82.93;100422.78;5028919;28;20112;-64
2022/10/31 10:03:35;;;;;;;11.20;6.28;;;;;;;19.33;82.77;100412.88;5031015;28;20112;-63
2022/10/31 10:06:14;;;;;;;11.65;6.45;;;;;;;19.25;83.33;100412.47;5030125;28;20029;-64
2022/10/31 10:08:40;;;;;;;9.70;6.28;;;;;;;19.24;84.01;100411.59;5027827;28;20461;-64
2022/10/31 10:11:08;;;;;;;9.77;6.43;;;;;;;19.22;84.94;100412.66;5031468;28;20036;-64
2022/10/31 10:14:11;;;;;;;10.80;6.57;;;;;;;19.14;85.77;100409.56;5027637;28;20033;-64
2022/10/31 10:17:07;;;;;;;12.65;6.53;;;;;;;19.20;86.66;100410.06;5029619;28;20392;-64
2022/10/31 10:19:46;;;;;;;8.73;5.63;;;;;;;19.20;86.79;100403.78;5028082;28;20025;-63
2022/10/31 10:22:17;;;;;;;9.60;6.47;;;;;;;19.29;86.71;100400.56;5028097;28;20342;-63
2022/10/31 10:25:10;;;;;;;15.07;6.10;;;;;;;19.40;87.90;100395.34;5030575;28;20692;-63
2022/10/31 10:28:12;;;;;;;9.27;5.87;;;;;;;19.36;87.34;100385.72;5027753;28;20029;-62
2022/10/31 10:30:44;;;;;;;14.60;6.18;;;;;;;19.40;87.96;100389.97;5029015;28;20109;-63
2022/10/31 10:33:13;;;;;;;12.73;6.10;;;;;;;19.33;88.29;100396.69;5025605;28;20025;-62
2022/10/31 10:35:44;;;;;;;9.70;5.60;;;;;;;19.32;87.43;100398.50;5030174;28;20029;-62
2022/10/31 10:38:24;;;;;;;9.60;5.55;;;;;;;19.32;86.08;100392.28;5029860;28;20878;-63
2022/10/31 10:40:53;;;;;;;9.85;6.07;;;;;;;19.15;86.98;100397.81;5028702;28;21056;-63
2022/10/31 10:43:33;;;;;;;9.68;6.22;;;;;;;19.15;87.12;100401.38;5031606;28;20033;-63
2022/10/31 10:49:09;;;;;;;10.73;5.40;;;;;;;19.17;87.21;100371.63;5030414;28;20663;-62
2022/10/31 10:51:59;;;;;;;8.90;5.57;;;;;;;19.31;87.37;100382.44;5029391;28;20032;-62
2022/10/31 10:54:46;;;;;;;12.20;5.80;;;;;;;19.25;86.72;100385.47;5028538;28;20025;-61
2022/10/31 10:57:21;;;;;;;12.52;5.72;;;;;;;19.27;86.30;100388.97;5029807;28;20052;-62
2022/10/31 10:59:46;;;;;;;10.25;5.88;;;;;;;19.11;85.93;100388.19;5026555;28;20025;-62
2022/10/31 11:02:22;;;;;;;13.45;6.35;;;;;;;19.19;86.42;100384.03;5028749;28;20351;-63
2022/10/31 11:04:51;;;;;;;12.32;6.57;;;;;;;19.28;86.87;100361.88;5028604;28;20036;-62
2022/10/31 11:07:16;;;;;;;9.85;5.80;;;;;;;19.43;87.04;100370.88;5027938;28;20064;-61
2022/10/31 11:09:42;;;;;;;11.73;5.93;;;;;;;19.18;85.17;100378.72;5031918;28;20376;-62
2022/10/31 11:12:27;;;;;;;11.68;6.82;;;;;;;19.04;86.83;100386.81;5026523;28;20041;-61
2022/10/31 11:14:59;;;;;;;11.57;6.88;;;;;;;19.10;88.06;100378.34;5034078;28;20030;-61
2022/10/31 11:17:38;;;;;;;12.50;6.63;;;;;;;19.13;87.88;100352.06;5030722;28;20373;-61
2022/10/31 11:20:11;;;;;;;16.83;7.25;;;;;;;19.20;87.24;100360.63;5029039;28;20761;-61
2022/10/31 11:22:37;;;;;;;9.27;6.22;;;;;;;19.25;86.77;100363.91;5030621;28;20053;-61
2022/10/31 11:25:24;;;;;;;11.73;6.30;;;;;;;19.25;86.16;100347.72;5026901;28;20035;-61
2022/10/31 11:28:01;;;;;;;10.45;6.40;;;;;;;19.32;84.85;100359.91;5029675;28;20484;-61
2022/10/31 11:30:26;;;;;;;14.73;7.00;;;;;;;19.15;85.45;100368.13;5029783;28;20475;-62